Main page
METAR-TAF:

METAR-TAF

Airports :

Honiara, Guadalcanal, Solomon Islands

Honiara International Airport

latitude: 09-25S, longitude: 160-03E, elevation: 8 m

Current weather observation

The report was made 10 minutes ago, at 16:00 UTC
Wind 2 kt from the South
Temperature 24°C
Humidity 94%
Pressure 1008 hPa
Visibility 10 km or more
Few clouds at a height of 1600 ft
Broken clouds at a height of 30000 ft

METAR: AGGH 251600Z 18002KT 9999 FEW016 BKN300 24/23 Q1008

Time: 03:10 (16:10 UTC)

Forecast

The report was made 4 hours and 55 minutes ago, at 11:15 UTC
Forecast valid from 25 at 12 UTC to 26 at 12 UTC
Wind 3 kt from variable directions
Visibility: 1010 m
Scattered clouds at a height of 1600 ft
Scattered clouds at a height of 10000 ft

TAF: AGGH 251115Z 2512/2612 VRB03KT 9999 SCT016 SCT100 T 26 24 23 25 Q 1010 1008 1008 1010

Weather observations and forecasts of more than 4000 airports (METAR and TAF reports).

The available stations are represented by yellow and red dots on the map.

Hover mouse over dot to see the name of the station.

Then click to see weather observations and forecasts.

To change the map : click on the green buttons with a black cross to zoom in, on the green button with a dash to zoom out, or on the green arrows for adjacent maps.


METAR-TAF: